Time;durP1;ratioP1;P1;durP2;ratioP2;P2;SDS_P1;SDS_P2;PMS_P1;PMS_P2;Temp;Humidity;BMP_temperature;BMP_pressure;BME280_temperature;BME280_humidity;BME280_pressure;Samples;Min_cycle;Max_cycle;Signal;HPM_P1;HPM_P2
2021/03/17 00:01:11;;;;;;;9.35;4.40;;;7.00;93.80;;;7.30;77.50;101256.66;5032355;28;20159;-82
2021/03/17 00:03:57;;;;;;;7.70;4.25;;;7.00;93.90;;;7.28;77.23;101253.25;5032759;28;20056;-82
2021/03/17 00:06:43;;;;;;;9.60;4.38;;;7.00;94.20;;;7.28;77.64;101251.38;5032070;28;20064;-82
2021/03/17 00:09:28;;;;;;;13.30;5.07;;;7.00;94.00;;;7.31;77.23;101252.94;5032565;28;20081;-82
2021/03/17 00:12:14;;;;;;;9.48;4.75;;;7.00;94.10;;;7.27;77.56;101255.09;5032345;28;20049;-81
2021/03/17 00:14:59;;;;;;;7.93;4.32;;;7.00;94.10;;;7.27;77.04;101255.09;5032890;28;20158;-82
2021/03/17 00:17:44;;;;;;;9.43;4.50;;;7.00;94.20;;;7.27;77.10;101249.66;5032351;28;20056;-82
2021/03/17 00:20:31;;;;;;;9.50;4.93;;;7.00;94.20;;;7.23;77.72;101251.84;5032951;28;20084;-82
2021/03/17 00:23:18;;;;;;;11.57;5.53;;;7.00;94.40;;;7.27;77.47;101263.19;5032400;28;20549;-82
2021/03/17 00:26:03;;;;;;;10.77;5.55;;;7.00;94.80;;;7.26;77.95;101260.66;5028956;28;20106;-82
2021/03/17 00:28:49;;;;;;;10.32;5.55;;;7.00;94.70;;;7.29;77.31;101261.22;5032094;28;20123;-82
2021/03/17 00:31:34;;;;;;;13.05;6.97;;;7.00;94.70;;;7.29;77.79;101263.94;5032729;28;20068;-82
2021/03/17 00:34:19;;;;;;;12.77;7.15;;;7.00;94.40;;;7.26;77.58;101266.94;5032191;28;20204;-82
2021/03/17 00:37:06;;;;;;;12.80;6.72;;;7.00;94.70;;;7.26;77.74;101275.03;5031059;28;20064;-82
2021/03/17 00:39:51;;;;;;;12.65;7.60;;;6.90;94.90;;;7.28;77.47;101266.78;5032297;28;20133;-82
2021/03/17 00:42:55;;;;;;;14.25;7.88;;;7.00;94.80;;;7.26;77.98;101275.03;5032501;28;20538;-82
2021/03/17 00:45:40;;;;;;;14.38;8.30;;;7.00;94.60;;;7.24;77.63;101279.75;5029680;28;20048;-82
2021/03/17 00:48:13;;;;;;;14.80;8.40;;;7.00;94.70;;;7.21;77.86;101285.44;5031835;28;20108;-82
2021/03/17 00:50:46;;;;;;;12.98;7.90;;;6.90;94.70;;;7.21;77.81;101280.03;5030872;28;20108;-82
2021/03/17 00:53:14;;;;;;;15.07;8.10;;;6.90;94.90;;;7.22;77.94;101285.31;5031547;28;20046;-82
2021/03/17 00:55:41;;;;;;;17.35;9.13;;;6.90;94.90;;;7.22;77.65;101287.16;5021238;28;20182;-82
2021/03/17 00:58:23;;;;;;;16.73;9.15;;;6.90;94.90;;;7.22;77.70;101282.59;5015303;28;20053;-82
2021/03/17 01:00:50;;;;;;;15.00;9.02;;;6.90;95.00;;;7.20;78.13;101283.75;5029967;28;20056;-82
2021/03/17 01:03:16;;;;;;;17.20;9.95;;;6.90;95.00;;;7.18;78.22;101281.19;5031125;28;20560;-82
2021/03/17 01:05:43;;;;;;;17.67;9.93;;;6.90;95.00;;;7.13;77.85;101280.75;5030075;28;20120;-82
2021/03/17 01:08:10;;;;;;;18.20;10.93;;;6.90;95.20;;;7.15;78.59;101275.19;5030845;28;20503;-82
2021/03/17 01:10:42;;;;;;;16.75;10.95;;;6.90;95.30;;;7.20;78.33;101272.91;5031474;28;20057;-82
2021/03/17 01:13:09;;;;;;;21.88;13.15;;;6.90;95.40;;;7.19;78.04;101271.19;5030191;28;20045;-82
2021/03/17 01:15:37;;;;;;;21.48;12.82;;;6.90;95.00;;;7.15;77.97;101273.34;5031405;28;20084;-82
2021/03/17 01:18:05;;;;;;;21.58;13.63;;;6.90;95.20;;;7.13;78.81;101279.91;5031643;28;20462;-82
2021/03/17 01:20:34;;;;;;;22.30;13.02;;;6.90;95.30;;;7.13;78.37;101271.78;5033661;28;20563;-82
2021/03/17 01:23:01;;;;;;;20.73;13.70;;;6.90;95.50;;;7.16;78.43;101271.47;5033267;28;20552;-82
2021/03/17 01:25:32;;;;;;;21.15;13.57;;;6.80;95.40;;;7.14;77.95;101278.88;5032627;28;20045;-82
2021/03/17 01:28:03;;;;;;;23.35;14.23;;;6.80;95.20;;;7.10;78.18;101272.94;5033232;28;20049;-82
2021/03/17 01:30:32;;;;;;;;;;;6.80;95.50;;;7.11;78.30;101271.06;5032867;28;20049;-82
2021/03/17 01:32:59;;;;;;;24.45;14.82;;;6.80;95.50;;;7.12;78.53;101280.88;5033511;28;19925;-82
2021/03/17 01:35:26;;;;;;;23.23;15.20;;;6.80;95.70;;;7.11;78.25;101273.78;5032881;28;20048;-82
2021/03/17 01:37:53;;;;;;;21.77;14.23;;;6.80;95.70;;;7.11;78.20;101273.78;5030653;28;20545;-82
2021/03/17 01:40:23;;;;;;;23.80;14.07;;;6.80;95.60;;;7.14;78.41;101278.88;5032471;28;20566;-82
2021/03/17 01:42:50;;;;;;;20.40;13.90;;;6.90;95.50;;;7.13;77.90;101278.03;5032092;28;20163;-82
2021/03/17 01:45:19;;;;;;;22.73;14.40;;;6.90;94.90;;;7.17;77.49;101284.03;5030694;28;20652;-82
2021/03/17 01:47:48;;;;;;;22.38;14.35;;;6.90;95.00;;;7.15;78.42;101286.03;5032855;28;20140;-82
2021/03/17 01:50:18;;;;;;;24.42;14.70;;;6.80;95.20;;;7.11;78.05;101284.59;5032904;28;20124;-82
2021/03/17 01:52:45;;;;;;;23.38;14.82;;;6.90;95.40;;;7.09;78.69;101290.16;5032925;28;20057;-82
2021/03/17 01:55:13;;;;;;;27.52;15.60;;;6.80;95.50;;;7.08;78.21;101287.59;5031898;28;20098;-83
2021/03/17 01:57:40;;;;;;;21.70;13.90;;;6.80;95.50;;;7.12;77.82;101289.88;5032402;28;20072;-82
2021/03/17 02:00:10;;;;;;;23.08;15.40;;;6.80;95.20;;;7.14;78.02;101297.84;5032920;28;20061;-82
2021/03/17 02:02:43;;;;;;;23.15;15.70;;;6.80;95.20;;;7.09;78.30;101295.56;5032639;28;20099;-82
2021/03/17 02:05:13;;;;;;;25.88;15.70;;;6.80;95.30;;;7.14;78.08;101295.13;5031128;28;20061;-82
2021/03/17 02:07:40;;;;;;;27.20;17.50;;;6.80;95.20;;;7.13;77.59;101293.44;5032700;28;20073;-82
2021/03/17 02:10:10;;;;;;;29.50;18.63;;;6.80;95.00;;;7.11;77.74;101292.72;5032440;28;20132;-82
2021/03/17 02:12:49;;;;;;;32.65;18.83;;;6.80;94.80;;;7.12;77.92;101297.13;5031829;28;20103;-82
2021/03/17 02:15:36;;;;;;;30.95;18.27;;;6.80;94.80;;;7.11;77.78;101295.44;5024887;28;20050;-82
2021/03/17 02:18:11;;;;;;;26.75;17.65;;;6.80;94.80;;;7.10;77.36;101293.72;5031342;28;20088;-82
2021/03/17 02:21:44;;;;;;;26.77;16.25;;;6.80;94.70;;;7.10;77.46;101309.94;5032675;28;20045;-82
2021/03/17 02:24:20;;;;;;;19.95;13.63;;;6.80;95.00;;;7.08;78.14;101296.56;5033123;28;20069;-82
2021/03/17 02:27:48;;;;;;;23.77;14.93;;;6.70;94.90;;;7.04;77.68;101301.44;5033082;28;20125;-82
2021/03/17 02:30:50;;;;;;;25.33;15.35;;;6.70;94.80;;;7.04;77.52;101306.84;5000558;28;20054;-82
2021/03/17 02:33:40;;;;;;;26.67;15.52;;;6.70;95.00;;;7.05;77.45;101300.41;5033141;28;20091;-82
2021/03/17 02:36:12;;;;;;;26.75;15.20;;;6.80;94.50;;;7.03;77.13;101305.13;5033643;28;20045;-82
2021/03/17 02:38:45;;;;;;;23.20;14.65;;;6.70;94.20;;;6.99;77.87;101314.53;5033961;28;20080;-82
2021/03/17 02:41:21;;;;;;;21.77;12.70;;;6.70;94.70;;;7.01;77.09;101309.81;5033736;28;20132;-82
2021/03/17 02:43:50;;;;;;;21.75;13.07;;;6.70;94.40;;;6.96;77.23;101309.38;5033415;28;20077;-82
2021/03/17 02:46:20;;;;;;;19.83;10.77;;;6.70;94.30;;;6.98;77.27;101310.09;5031900;28;20077;-82
2021/03/17 02:48:56;;;;;;;16.83;10.05;;;6.60;94.10;;;7.00;77.33;101309.94;5032407;28;20058;-82
2021/03/17 02:51:31;;;;;;;16.85;8.95;;;6.60;94.30;;;6.94;77.60;101303.25;5032752;28;20049;-82
2021/03/17 02:54:02;;;;;;;13.82;7.45;;;6.60;94.80;;;6.92;77.41;101312.53;5032098;28;20076;-82
2021/03/17 02:56:35;;;;;;;12.32;6.47;;;6.60;94.60;;;6.95;77.85;101310.38;5033320;28;20479;-82
2021/03/17 02:59:02;;;;;;;9.90;5.47;;;6.60;94.70;;;6.97;77.19;101312.97;5034369;28;20081;-82
2021/03/17 03:01:31;;;;;;;11.25;5.85;;;6.60;94.30;;;6.95;77.30;101313.09;5033462;28;20053;-82
2021/03/17 03:03:59;;;;;;;11.10;6.25;;;6.60;94.10;;;6.90;77.20;101307.25;5033933;28;20075;-82
2021/03/17 03:06:27;;;;;;;10.77;6.25;;;6.60;93.90;;;6.92;76.96;101307.94;5032221;28;20136;-82
2021/03/17 03:08:54;;;;;;;8.98;5.35;;;6.60;93.70;;;6.95;76.42;101298.69;5034342;28;20041;-82
2021/03/17 03:11:22;;;;;;;8.82;6.03;;;6.60;93.50;;;6.96;76.63;101301.25;5033299;28;20037;-82
2021/03/17 03:13:51;;;;;;;9.80;5.57;;;6.60;93.70;;;6.93;76.49;101306.97;5034401;28;20043;-82
2021/03/17 03:16:19;;;;;;;9.23;5.55;;;6.60;93.70;;;6.91;76.58;101305.38;5033422;28;20053;-82
2021/03/17 03:18:49;;;;;;;8.52;5.65;;;6.50;94.30;;;6.89;77.06;101301.97;5032333;28;20135;-82
2021/03/17 03:21:20;;;;;;;9.07;5.90;;;6.50;94.60;;;6.90;76.98;101307.25;5032470;28;20132;-82
2021/03/17 03:23:49;;;;;;;11.07;6.35;;;6.50;94.90;;;6.86;77.29;101311.22;5033680;28;20088;-82
2021/03/17 03:26:17;;;;;;;8.70;5.60;;;6.50;95.00;;;6.88;77.44;101306.53;5032928;28;20558;-82
2021/03/17 03:28:46;;;;;;;9.43;5.47;;;6.50;94.90;;;6.84;77.71;101303.25;5033483;28;20167;-81
2021/03/17 03:31:12;;;;;;;9.45;5.88;;;6.50;95.00;;;6.84;78.05;101305.97;5032737;28;20099;-82
2021/03/17 03:33:39;;;;;;;9.32;6.22;;;6.50;95.20;;;6.86;77.15;101311.22;5033293;28;20045;-82
2021/03/17 03:36:07;;;;;;;8.95;5.88;;;6.50;94.90;;;6.86;76.60;101303.13;5032582;28;20037;-82
2021/03/17 03:38:34;;;;;;;7.05;4.88;;;6.50;94.00;;;6.82;76.56;101304.41;5033221;28;20069;-82
2021/03/17 03:41:01;;;;;;;7.55;4.65;;;6.50;94.20;;;6.78;76.86;101294.84;5033128;28;20073;-82
2021/03/17 03:43:31;;;;;;;7.13;4.63;;;6.50;94.40;;;6.79;77.44;101302.81;5033243;28;20080;-82
2021/03/17 03:45:58;;;;;;;7.35;5.10;;;6.40;94.50;;;6.84;76.98;101302.41;5031965;28;20446;-82
2021/03/17 03:48:25;;;;;;;6.40;4.32;;;6.50;94.60;;;6.84;76.36;101305.09;5033578;28;20050;-82
2021/03/17 03:50:53;;;;;;;6.00;4.00;;;6.50;94.40;;;6.85;76.70;101298.69;5033194;28;20384;-82
2021/03/17 03:53:41;;;;;;;6.68;4.07;;;6.40;94.30;;;6.76;76.44;101299.53;5033129;28;20729;-82
2021/03/17 03:56:12;;;;;;;6.68;4.28;;;6.40;94.30;;;6.73;77.04;101299.81;5032553;28;20061;-82
2021/03/17 03:58:47;;;;;;;7.10;4.30;;;6.30;94.70;;;6.74;76.91;101299.69;5030759;28;20168;-82
2021/03/17 04:01:18;;;;;;;5.70;3.80;;;6.40;94.60;;;6.72;77.32;101298.09;5031769;28;20156;-82
2021/03/17 04:03:56;;;;;;;6.05;3.78;;;6.40;94.80;;;6.69;76.99;101303.81;5032969;28;20123;-82
2021/03/17 04:06:23;;;;;;;5.60;3.47;;;6.30;94.90;;;6.73;77.44;101291.72;5032082;28;20452;-82
2021/03/17 04:08:55;;;;;;;5.25;3.33;;;6.30;95.00;;;6.74;77.39;101298.81;5031490;28;20075;-82
2021/03/17 04:11:22;;;;;;;5.47;3.50;;;6.30;95.00;;;6.77;76.78;101303.94;5033217;28;20436;-82
2021/03/17 04:13:50;;;;;;;5.15;3.30;;;6.40;94.50;;;6.77;77.19;101293.97;5032829;28;20042;-82
2021/03/17 04:16:20;;;;;;;6.55;4.00;;;6.30;94.70;;;6.73;77.03;101297.97;5032805;28;20645;-82
2021/03/17 04:18:48;;;;;;;6.00;3.85;;;6.40;94.30;;;6.71;76.43;101288.28;5030407;28;20140;-82
2021/03/17 04:21:20;;;;;;;5.18;3.20;;;6.30;94.40;;;6.70;77.22;101300.09;5033185;28;20707;-82
2021/03/17 04:23:50;;;;;;;6.03;3.60;;;6.30;94.90;;;6.69;77.07;101296.53;5032244;28;20124;-82
2021/03/17 04:26:18;;;;;;;6.25;3.28;;;6.30;94.80;;;6.69;76.92;101303.81;5032843;28;20278;-82
2021/03/17 04:28:47;;;;;;;4.95;2.80;;;6.40;95.10;;;6.70;76.72;101298.25;5032595;28;20072;-82
2021/03/17 04:31:16;;;;;;;5.50;3.15;;;6.30;94.60;;;6.67;77.44;101303.09;5032420;28;20042;-82
2021/03/17 04:33:45;;;;;;;4.38;2.92;;;6.30;94.70;;;6.67;77.02;101305.81;5032424;28;20065;-82
2021/03/17 04:36:13;;;;;;;4.63;3.05;;;6.30;94.90;;;6.71;76.61;101304.53;5032792;28;20037;-82
2021/03/17 04:38:41;;;;;;;4.65;2.97;;;6.30;94.60;;;6.67;77.00;101311.22;5032294;28;20101;-82
2021/03/17 04:41:10;;;;;;;4.10;2.80;;;6.30;94.60;;;6.62;77.21;101308.91;5032544;28;20103;-82
2021/03/17 04:43:40;;;;;;;4.57;2.67;;;6.30;94.50;;;6.62;76.74;101309.75;5031780;28;20868;-82
2021/03/17 04:46:07;;;;;;;4.50;2.88;;;6.30;94.80;;;6.68;76.63;101305.63;5031248;28;20497;-84
2021/03/17 04:48:36;;;;;;;5.03;3.33;;;6.30;94.70;;;6.65;77.05;101312.19;5031108;28;20057;-81
2021/03/17 04:51:04;;;;;;;4.78;3.17;;;6.30;94.60;;;6.65;76.66;101316.75;5031590;28;20065;-82
2021/03/17 04:53:30;;;;;;;4.35;2.92;;;6.20;94.60;;;6.63;77.05;101314.19;5033655;28;20063;-83
2021/03/17 04:55:58;;;;;;;5.13;3.28;;;6.20;95.00;;;6.60;77.00;101319.00;5034517;28;20050;-82
2021/03/17 04:58:27;;;;;;;6.70;3.80;;;6.20;94.90;;;6.55;77.67;101326.69;5034199;28;20194;-82
2021/03/17 05:00:54;;;;;;;5.68;3.40;;;6.20;94.80;;;6.63;76.79;101324.16;5034301;28;20547;-82
2021/03/17 05:03:25;;;;;;;5.30;3.60;;;6.30;94.80;;;6.67;77.16;101322.03;5034012;28;20084;-82
2021/03/17 05:05:55;;;;;;;5.63;3.60;;;6.30;94.80;;;6.63;77.35;101325.00;5033939;28;20598;-82
2021/03/17 05:08:23;;;;;;;5.28;3.88;;;6.30;94.90;;;6.62;77.43;101328.69;5033533;28;20084;-82
2021/03/17 05:10:50;;;;;;;5.70;3.80;;;6.30;95.20;;;6.62;77.36;101322.44;5034370;28;20136;-82
2021/03/17 05:13:17;;;;;;;6.75;3.90;;;6.30;95.00;;;6.64;77.32;101323.16;5057532;28;20656;-82
2021/03/17 05:15:46;;;;;;;7.65;4.55;;;6.30;95.30;;;6.64;77.79;101332.13;5034062;28;20132;-82
2021/03/17 05:18:17;;;;;;;7.57;5.13;;;6.30;95.40;;;6.69;77.65;101328.16;5034321;28;20068;-82
2021/03/17 05:20:49;;;;;;;7.35;5.07;;;6.30;95.50;;;6.69;77.42;101333.56;5034133;28;20065;-82
2021/03/17 05:23:17;;;;;;;6.53;4.70;;;6.30;95.50;;;6.64;77.85;101328.56;5032784;28;20100;-81
2021/03/17 05:25:45;;;;;;;8.52;5.45;;;6.40;95.40;;;6.65;77.54;101335.69;5033646;28;20124;-82
2021/03/17 05:28:14;;;;;;;8.45;5.45;;;6.30;95.40;;;6.63;77.91;101332.28;5033653;28;20510;-82
2021/03/17 05:30:44;;;;;;;9.15;6.28;;;6.30;95.50;;;6.67;77.70;101330.16;5033209;28;20113;-82
2021/03/17 05:33:12;;;;;;;9.68;6.55;;;6.30;95.70;;;6.69;77.18;101325.44;5033908;28;20073;-82
2021/03/17 05:35:40;;;;;;;10.57;6.72;;;6.30;95.40;;;6.69;77.86;101328.16;5032910;28;20124;-81
2021/03/17 05:38:07;;;;;;;9.07;5.75;;;6.40;95.40;;;6.70;77.41;101332.56;5033278;28;20133;-83
2021/03/17 05:40:36;;;;;;;9.70;6.78;;;6.30;95.50;;;6.66;77.97;101334.69;5033320;28;20056;-83
2021/03/17 05:43:05;;;;;;;11.43;7.47;;;6.30;95.40;;;6.67;78.22;101332.84;5033565;28;20083;-83
2021/03/17 05:45:34;;;;;;;11.07;7.15;;;6.60;95.60;;;6.67;77.93;101328.28;5032603;28;20041;-83
2021/03/17 05:48:04;;;;;;;11.15;7.55;;;6.30;95.60;;;6.66;78.46;101334.69;5030918;28;20136;-83
2021/03/17 05:50:31;;;;;;;11.52;7.13;;;6.30;95.80;;;6.67;78.29;101325.59;5032763;28;20041;-83
2021/03/17 05:52:59;;;;;;;11.52;7.32;;;6.30;95.90;;;6.61;78.32;101332.41;5033094;28;20766;-82
2021/03/17 05:55:26;;;;;;;8.95;6.55;;;6.30;96.00;;;6.62;78.52;101334.09;5033111;28;20590;-82
2021/03/17 05:57:57;;;;;;;9.90;7.40;;;6.30;96.20;;;6.66;78.34;101340.09;5029299;28;20169;-85
2021/03/17 06:00:25;;;;;;;10.60;8.00;;;6.30;96.10;;;6.67;78.15;101336.41;5029107;28;20054;-85
2021/03/17 06:02:52;;;;;;;11.85;8.07;;;6.30;95.80;;;6.69;78.08;101345.22;5030701;28;20137;-83
2021/03/17 06:05:22;;;;;;;11.27;8.05;;;6.40;95.70;;;6.72;78.42;101347.66;5030190;28;20095;-83
2021/03/17 06:07:59;;;;;;;11.52;8.38;;;6.40;95.90;;;6.71;78.06;101345.09;5028551;28;20570;-82
2021/03/17 06:10:27;;;;;;;9.82;7.38;;;6.40;95.50;;;6.70;78.12;101351.47;5030610;28;20444;-83
2021/03/17 06:13:00;;;;;;;10.00;7.43;;;6.40;95.80;;;6.73;78.09;101343.94;5029625;28;20055;-82
2021/03/17 06:15:29;;;;;;;8.98;6.30;;;6.40;95.90;;;6.73;78.29;101354.78;5029675;28;20049;-82
2021/03/17 06:17:59;;;;;;;9.70;6.55;;;6.40;95.50;;;6.71;78.35;101353.22;5029710;28;20049;-83
2021/03/17 06:20:28;;;;;;;10.50;5.90;;;6.40;95.70;;;6.70;78.05;101346.94;5030042;28;20154;-83
2021/03/17 06:22:55;;;;;;;8.73;6.05;;;6.50;95.90;;;6.66;77.92;101350.91;5029786;28;20358;-82
2021/03/17 06:25:22;;;;;;;8.82;5.53;;;6.40;95.60;;;6.67;78.25;101351.78;5028966;28;20045;-83
2021/03/17 06:27:50;;;;;;;7.85;5.68;;;6.50;95.60;;;6.72;78.34;101349.50;5030035;28;20749;-82
2021/03/17 06:30:18;;;;;;;9.25;5.47;;;6.50;95.70;;;6.74;78.45;101358.31;5030382;28;20140;-81
2021/03/17 06:32:45;;;;;;;10.40;6.40;;;6.50;95.80;;;6.77;78.51;101358.06;5031990;28;20076;-81
2021/03/17 06:35:21;;;;;;;10.30;6.70;;;6.50;95.70;;;6.76;78.05;101361.75;5031509;28;20109;-81
2021/03/17 06:37:50;;;;;;;10.85;7.25;;;6.50;95.40;;;6.79;78.12;101364.19;5031136;28;20053;-82
2021/03/17 06:40:24;;;;;;;9.98;7.18;;;6.50;95.40;;;6.79;78.16;101359.63;5032074;28;20049;-82
2021/03/17 06:42:53;;;;;;;13.98;7.80;;;6.60;95.20;;;6.79;77.93;101358.78;5032043;28;20052;-82
2021/03/17 06:45:38;;;;;;;12.35;8.13;;;6.60;95.00;;;6.78;77.52;101355.22;5031881;28;20042;-81
2021/03/17 06:48:25;;;;;;;10.65;7.13;;;6.60;94.70;;;6.77;77.38;101358.91;5032544;28;20055;-82
2021/03/17 06:51:04;;;;;;;10.43;6.72;;;6.60;95.00;;;6.79;77.55;101354.22;5031705;28;20535;-81
2021/03/17 06:53:45;;;;;;;11.55;6.47;;;6.60;94.90;;;6.80;78.18;101368.63;5031263;28;20751;-82
2021/03/17 06:56:20;;;;;;;6.68;3.78;;;6.50;94.80;;;6.78;76.62;101370.59;5031570;28;20069;-81
2021/03/17 06:58:49;;;;;;;7.47;3.00;;;6.50;92.70;;;6.75;75.70;101373.56;5031975;28;20046;-82
2021/03/17 07:01:35;;;;;;;5.35;2.05;;;6.40;92.10;;;6.73;75.20;101364.75;5031384;28;20096;-82
2021/03/17 07:04:05;;;;;;;3.97;1.67;;;6.30;91.60;;;6.72;74.06;101366.59;5032862;28;20076;-81
2021/03/17 07:06:33;;;;;;;5.20;2.20;;;6.20;90.80;;;6.68;74.28;101362.44;5031383;28;20111;-81
2021/03/17 07:09:17;;;;;;;5.80;2.22;;;6.20;91.50;;;6.69;73.87;101364.16;5046430;28;20080;-82
2021/03/17 07:11:46;;;;;;;4.53;1.88;;;6.20;91.50;;;6.67;73.81;101370.72;5035178;28;20046;-81
2021/03/17 07:14:13;;;;;;;6.40;2.40;;;6.20;91.00;;;6.66;74.52;101377.94;5035057;28;20099;-83
2021/03/17 07:16:42;;;;;;;7.40;2.47;;;6.20;91.60;;;6.65;74.69;101374.41;5036068;28;20109;-84
2021/03/17 07:19:09;;;;;;;7.53;2.95;;;6.30;91.60;;;6.67;74.73;101376.13;5035841;28;20077;-81
2021/03/17 07:21:39;;;;;;;7.43;2.75;;;6.30;91.40;;;6.64;75.12;101374.53;5035456;28;20038;-81
2021/03/17 07:24:10;;;;;;;7.05;3.05;;;6.30;92.00;;;6.61;75.01;101381.09;5035993;28;20049;-81
2021/03/17 07:26:38;;;;;;;6.13;3.10;;;6.20;92.00;;;6.61;75.22;101372.13;5034593;28;20056;-81
2021/03/17 07:29:13;;;;;;;6.30;2.90;;;6.20;92.40;;;6.61;74.91;101370.25;5036297;28;20244;-81
2021/03/17 07:31:45;;;;;;;7.47;3.28;;;6.30;92.40;;;6.61;75.13;101378.38;5033378;28;20046;-81
2021/03/17 07:34:22;;;;;;;7.03;3.30;;;6.30;92.70;;;6.59;75.33;101377.66;5035287;28;20057;-81
2021/03/17 07:36:54;;;;;;;6.30;3.28;;;6.30;92.20;;;6.62;75.92;101381.94;5033704;28;20049;-81
2021/03/17 07:39:26;;;;;;;6.57;3.30;;;6.50;92.40;;;6.63;75.44;101384.50;5035337;28;20045;-82
2021/03/17 07:41:55;;;;;;;8.65;3.80;;;6.50;91.60;;;6.63;76.95;101383.66;5035725;28;20452;-82
2021/03/17 07:44:24;;;;;;;11.57;4.45;;;6.60;92.70;;;6.69;76.20;101382.25;5034786;28;20053;-82
2021/03/17 07:46:54;;;;;;;11.10;3.78;;;6.60;92.50;;;6.68;75.87;101385.94;5035278;28;20049;-82
2021/03/17 07:49:22;;;;;;;9.88;3.90;;;6.60;91.30;;;6.72;75.08;101390.94;5035383;28;20105;-82
2021/03/17 07:51:52;;;;;;;10.07;4.10;;;6.70;90.50;;;6.69;75.65;101385.81;5033896;28;20501;-83
2021/03/17 07:54:28;;;;;;;11.57;4.13;;;6.60;91.30;;;6.73;75.26;101389.09;5033022;28;20045;-84
2021/03/17 07:56:56;;;;;;;10.00;4.43;;;6.60;90.80;;;6.74;76.03;101396.19;5030101;28;20518;-83
2021/03/17 07:59:23;;;;;;;12.30;4.90;;;6.60;91.40;;;6.75;75.65;101397.94;5032854;28;20056;-83
2021/03/17 08:01:52;;;;;;;9.70;4.70;;;6.60;91.70;;;6.75;74.94;101389.81;5032362;28;20079;-82
2021/03/17 08:04:18;;;;;;;10.48;4.60;;;6.60;90.90;;;6.74;75.03;101391.66;5032817;28;20069;-80
2021/03/17 08:06:45;;;;;;;10.48;3.97;;;6.60;91.20;;;6.77;75.58;101396.78;5032484;28;20103;-80
2021/03/17 08:09:12;;;;;;;10.23;4.25;;;6.70;91.20;;;6.78;75.18;101394.97;5032797;28;20072;-86
2021/03/17 08:11:40;;;;;;;11.40;4.50;;;6.70;91.40;;;6.77;76.21;101401.34;5033049;28;20049;-84
2021/03/17 08:14:12;;;;;;;9.20;3.92;;;6.70;92.00;;;6.77;74.99;101406.75;5031677;28;20124;-85
2021/03/17 08:16:39;;;;;;;11.00;4.35;;;6.70;90.30;;;6.80;74.72;101409.19;5031165;28;20048;-84
2021/03/17 08:19:25;;;;;;;10.50;3.90;;;6.70;90.40;;;6.80;74.23;101409.19;5030953;28;20060;-84
2021/03/17 08:21:55;;;;;;;9.23;3.45;;;6.60;90.30;;;6.77;75.12;101401.34;5030748;28;20068;-85
2021/03/17 08:24:46;;;;;;;10.88;3.67;;;6.60;90.70;;;6.77;74.44;101402.19;5030380;28;20081;-85
2021/03/17 08:27:20;;;;;;;10.77;2.67;;;6.60;90.00;;;6.80;73.77;101410.03;5021046;28;20088;-83
2021/03/17 08:29:50;;;;;;;8.93;2.40;;;6.80;88.60;;;6.81;73.21;101410.88;5030820;28;20056;-85
2021/03/17 08:32:18;;;;;;;6.55;2.67;;;6.90;87.40;;;6.83;72.99;101411.59;5050744;28;20053;-84
2021/03/17 08:34:57;;;;;;;10.13;3.10;;;6.90;87.10;;;6.85;73.48;101404.22;5038677;28;20053;-85
2021/03/17 08:37:49;;;;;;;8.60;2.30;;;6.90;88.00;;;6.85;72.15;101396.97;5033947;28;20048;-83
2021/03/17 08:40:55;;;;;;;6.75;2.47;;;6.90;87.20;;;6.86;72.69;101411.34;5031900;28;20083;-83
2021/03/17 08:43:47;;;;;;;6.22;2.60;;;6.90;87.60;;;6.87;72.67;101391.38;5018880;28;20148;-84
2021/03/17 08:46:17;;;;;;;8.13;2.88;;;6.90;87.00;;;6.88;71.85;101409.34;5027178;28;20065;-84
2021/03/17 08:49:05;;;;;;;9.63;3.53;;;6.90;86.30;;;6.89;71.54;101396.66;5031942;28;20492;-84
2021/03/17 08:52:10;;;;;;;6.35;2.90;;;6.90;86.20;;;6.90;72.22;101411.94;5046883;28;20585;-83
2021/03/17 08:55:01;;;;;;;11.13;3.30;;;7.00;87.00;;;6.91;72.84;101403.69;5032684;28;20041;-84
2021/03/17 08:57:59;;;;;;;8.13;3.25;;;7.00;87.20;;;6.91;72.16;101408.22;5031712;28;20058;-83
2021/03/17 09:00:58;;;;;;;9.35;2.95;;;7.00;86.80;;;6.94;72.20;101408.78;5034596;28;20052;-86
2021/03/17 09:03:50;;;;;;;5.63;2.80;;;7.00;86.30;;;6.88;71.38;101417.47;5037485;28;20045;-83
2021/03/17 09:06:26;;;;;;;5.22;2.67;;;7.00;85.40;;;6.91;71.27;101414.50;5034551;28;20075;-82
2021/03/17 09:09:00;;;;;;;7.05;2.60;;;6.90;86.00;;;6.94;71.18;101414.19;5029483;28;20057;-83
2021/03/17 09:12:00;;;;;;;6.15;2.17;;;7.00;85.20;;;6.94;70.59;101419.63;5029471;28;20107;-83
2021/03/17 09:14:31;;;;;;;7.07;2.28;;;6.90;85.50;;;6.92;70.78;101429.72;5031498;28;20384;-83
2021/03/17 09:17:25;;;;;;;;;;;6.90;85.50;;;6.86;70.47;101419.47;5032074;28;20123;-83
2021/03/17 09:20:19;;;;;;;6.85;2.63;;;6.90;85.10;;;6.86;71.07;101427.56;5030418;28;20337;-83
2021/03/17 09:22:50;;;;;;;6.35;2.80;;;6.90;85.50;;;6.87;70.75;101421.16;5026350;28;20049;-83
2021/03/17 09:25:26;;;;;;;5.07;2.60;;;6.90;84.90;;;6.87;70.83;101426.56;5028805;28;20049;-83
2021/03/17 09:28:04;;;;;;;7.93;2.78;;;6.90;85.60;;;6.81;72.13;101427.13;5029485;28;20048;-83
2021/03/17 09:30:50;;;;;;;5.50;2.88;;;6.90;86.50;;;6.84;71.44;101419.59;5030922;28;20147;-84
2021/03/17 09:33:20;;;;;;;8.75;3.22;;;6.90;86.20;;;6.88;71.51;101420.19;5028963;28;20404;-83
2021/03/17 09:35:53;;;;;;;16.17;3.45;;;6.90;85.90;;;6.89;71.34;101411.03;5031052;28;20132;-83
2021/03/17 09:38:22;;;;;;;7.00;3.00;;;6.90;85.90;;;6.94;71.91;101424.19;5031252;28;20650;-83
2021/03/17 09:41:01;;;;;;;6.63;3.05;;;6.90;86.40;;;6.94;71.25;101422.31;5030510;28;20057;-83
2021/03/17 09:43:38;;;;;;;5.68;3.20;;;6.90;85.90;;;6.91;70.79;101425.31;5030981;28;20042;-85
2021/03/17 09:46:37;;;;;;;6.40;3.30;;;6.80;85.90;;;6.94;71.23;101432.28;5031135;28;20077;-81
2021/03/17 09:49:07;;;;;;;7.47;4.07;;;6.80;86.60;;;6.92;70.76;101443.25;5031208;28;20045;-85
2021/03/17 09:51:37;;;;;;;4.60;1.85;;;6.80;86.30;;;6.91;69.62;101457.78;5031146;28;20128;-85
2021/03/17 09:54:10;;;;;;;6.63;2.30;;;6.80;84.00;;;6.82;69.89;101447.78;5033622;28;20052;-86
2021/03/17 09:56:46;;;;;;;5.68;1.38;;;6.60;85.10;;;6.79;68.80;101448.06;5029300;28;20050;-85
2021/03/17 09:59:23;;;;;;;4.55;1.38;;;6.50;84.50;;;6.73;68.84;101444.03;5028879;28;20068;-85
2021/03/17 10:02:00;;;;;;;4.13;1.55;;;6.50;84.70;;;6.70;70.18;101427.22;5053432;28;20478;-85
2021/03/17 10:04:29;;;;;;;4.10;1.27;;;6.50;86.30;;;6.67;71.07;101428.38;5029230;28;20423;-85
2021/03/17 10:06:57;;;;;;;6.20;1.42;;;6.50;86.50;;;6.67;71.06;101430.22;5029524;28;20537;-85
2021/03/17 10:09:26;;;;;;;4.85;1.50;;;6.60;86.50;;;6.65;71.83;101431.19;5029776;28;20046;-83
2021/03/17 10:12:01;;;;;;;6.68;1.67;;;6.70;86.40;;;6.68;71.94;101431.91;5029381;28;20055;-83
2021/03/17 10:14:28;;;;;;;6.32;1.80;;;6.80;86.70;;;6.73;71.08;101438.63;5029216;28;20041;-83
2021/03/17 10:16:56;;;;;;;8.30;1.80;;;6.90;85.10;;;6.75;70.82;101435.78;5031400;28;20041;-83
2021/03/17 10:19:23;;;;;;;7.40;2.10;;;7.00;84.40;;;6.77;72.32;101426.53;5028642;28;20584;-83
2021/03/17 10:21:55;;;;;;;6.93;2.30;;;7.00;86.00;;;6.82;72.92;101432.41;5032469;28;20033;-83
2021/03/17 10:24:37;;;;;;;5.93;2.08;;;7.20;86.20;;;6.90;71.69;101428.16;5029416;28;20045;-84
2021/03/17 10:27:09;;;;;;;7.13;2.20;;;7.30;84.20;;;6.95;71.49;101424.03;5029370;28;20045;-83
2021/03/17 10:29:36;;;;;;;7.32;2.50;;;7.30;84.30;;;6.97;72.32;101424.75;5028171;28;20639;-84
2021/03/17 10:32:06;;;;;;;4.82;2.42;;;7.40;85.10;;;6.99;72.58;101425.47;5026385;28;20038;-88
2021/03/17 10:34:34;;;;;;;7.28;2.50;;;7.40;85.10;;;7.02;72.53;101421.63;5027157;28;20510;-83
2021/03/17 10:37:02;;;;;;;8.70;2.50;;;7.40;85.90;;;7.05;70.99;101418.66;5034419;28;20041;-84
2021/03/17 10:39:31;;;;;;;9.25;2.70;;;7.50;83.10;;;7.03;70.99;101410.66;5027744;28;20099;-83
2021/03/17 10:41:59;;;;;;;10.48;2.78;;;7.50;83.80;;;7.07;71.69;101408.53;5030370;28;20053;-83
2021/03/17 10:44:29;;;;;;;7.53;2.40;;;7.60;84.70;;;7.15;71.14;101408.69;5029338;28;20045;-85
2021/03/17 10:47:07;;;;;;;7.55;2.55;;;7.70;83.20;;;7.19;69.69;101403.84;5032772;28;20033;-85
2021/03/17 10:49:37;;;;;;;7.05;2.70;;;7.80;80.90;;;7.24;69.86;101405.13;5033104;28;20042;-85